sensor_id;sensor_type;location;lat;lon;timestamp;temperature;humidity
24384;DHT22;12504;52.870;8.798;2024-03-02T11:37:20;13.20;99.90
24384;DHT22;12504;52.870;8.798;2024-03-02T11:39:50;13.40;99.90
24384;DHT22;12504;52.870;8.798;2024-03-02T12:09:26;14.00;99.90
24384;DHT22;12504;52.870;8.798;2024-03-02T12:12:06;20.70;99.90
24384;DHT22;12504;52.870;8.798;2024-03-02T12:14:33;21.00;99.90
24384;DHT22;12504;52.870;8.798;2024-03-02T12:16:58;20.80;99.90
24384;DHT22;12504;52.870;8.798;2024-03-02T12:19:25;19.40;99.90
24384;DHT22;12504;52.870;8.798;2024-03-02T12:21:52;19.10;99.90
24384;DHT22;12504;52.870;8.798;2024-03-02T12:24:17;19.60;99.90
24384;DHT22;12504;52.870;8.798;2024-03-02T12:26:43;19.70;99.90
24384;DHT22;12504;52.870;8.798;2024-03-02T12:29:11;19.70;99.90
24384;DHT22;12504;52.870;8.798;2024-03-02T12:31:39;20.10;99.90
24384;DHT22;12504;52.870;8.798;2024-03-02T12:34:05;20.00;99.90
24384;DHT22;12504;52.870;8.798;2024-03-02T12:36:37;19.80;99.90
24384;DHT22;12504;52.870;8.798;2024-03-02T12:39:03;20.40;99.90
24384;DHT22;12504;52.870;8.798;2024-03-02T12:41:29;20.10;99.90
24384;DHT22;12504;52.870;8.798;2024-03-02T12:43:54;19.40;99.90
24384;DHT22;12504;52.870;8.798;2024-03-02T12:46:22;18.80;99.90
24384;DHT22;12504;52.870;8.798;2024-03-02T12:48:47;18.90;99.90
24384;DHT22;12504;52.870;8.798;2024-03-02T12:51:13;18.60;99.90
24384;DHT22;12504;52.870;8.798;2024-03-02T12:53:41;18.30;99.90
24384;DHT22;12504;52.870;8.798;2024-03-02T12:56:08;17.90;99.90
24384;DHT22;12504;52.870;8.798;2024-03-02T12:58:39;17.50;99.90
24384;DHT22;12504;52.870;8.798;2024-03-02T13:01:08;17.30;99.90
24384;DHT22;12504;52.870;8.798;2024-03-02T13:03:41;17.10;99.90
24384;DHT22;12504;52.870;8.798;2024-03-02T13:06:07;16.50;99.90
24384;DHT22;12504;52.870;8.798;2024-03-02T13:08:34;16.20;99.90
24384;DHT22;12504;52.870;8.798;2024-03-02T13:11:01;15.90;99.90
24384;DHT22;12504;52.870;8.798;2024-03-02T13:13:30;15.90;99.90
24384;DHT22;12504;52.870;8.798;2024-03-02T13:15:55;15.80;99.90
24384;DHT22;12504;52.870;8.798;2024-03-02T13:18:22;15.90;99.90
24384;DHT22;12504;52.870;8.798;2024-03-02T13:20:47;15.60;99.90
24384;DHT22;12504;52.870;8.798;2024-03-02T13:23:13;15.60;99.90
24384;DHT22;12504;52.870;8.798;2024-03-02T13:25:39;15.40;99.90
24384;DHT22;12504;52.870;8.798;2024-03-02T13:28:06;15.60;99.90
24384;DHT22;12504;52.870;8.798;2024-03-02T13:30:32;15.70;99.90
24384;DHT22;12504;52.870;8.798;2024-03-02T13:32:58;15.70;99.90
24384;DHT22;12504;52.870;8.798;2024-03-02T13:35:25;15.80;99.90
24384;DHT22;12504;52.870;8.798;2024-03-02T13:37:51;15.60;99.90
24384;DHT22;12504;52.870;8.798;2024-03-02T13:45:13;15.00;99.90
24384;DHT22;12504;52.870;8.798;2024-03-02T13:47:39;15.10;99.90
24384;DHT22;12504;52.870;8.798;2024-03-02T13:52:32;15.10;99.90
24384;DHT22;12504;52.870;8.798;2024-03-02T13:54:58;15.20;99.90
24384;DHT22;12504;52.870;8.798;2024-03-02T14:12:05;15.20;99.90
24384;DHT22;12504;52.870;8.798;2024-03-02T14:14:31;15.30;99.90
24384;DHT22;12504;52.870;8.798;2024-03-02T14:16:57;15.30;99.90
24384;DHT22;12504;52.870;8.798;2024-03-02T14:19:30;15.30;99.90
24384;DHT22;12504;52.870;8.798;2024-03-02T14:21:56;15.40;99.90
24384;DHT22;12504;52.870;8.798;2024-03-02T14:24:23;15.50;99.90
24384;DHT22;12504;52.870;8.798;2024-03-02T14:26:52;15.50;99.90
24384;DHT22;12504;52.870;8.798;2024-03-02T14:29:18;15.40;99.90
24384;DHT22;12504;52.870;8.798;2024-03-02T14:31:44;15.50;99.90
24384;DHT22;12504;52.870;8.798;2024-03-02T14:34:14;15.60;99.90
24384;DHT22;12504;52.870;8.798;2024-03-02T14:36:40;15.60;99.90
24384;DHT22;12504;52.870;8.798;2024-03-02T14:39:06;15.40;99.90
24384;DHT22;12504;52.870;8.798;2024-03-02T14:41:35;15.50;99.90
24384;DHT22;12504;52.870;8.798;2024-03-02T14:44:02;15.60;99.90
24384;DHT22;12504;52.870;8.798;2024-03-02T14:46:28;15.80;99.90
24384;DHT22;12504;52.870;8.798;2024-03-02T14:48:54;15.90;99.90
24384;DHT22;12504;52.870;8.798;2024-03-02T14:51:21;16.10;99.90
24384;DHT22;12504;52.870;8.798;2024-03-02T14:53:48;16.20;99.90
24384;DHT22;12504;52.870;8.798;2024-03-02T14:56:14;16.20;99.90
24384;DHT22;12504;52.870;8.798;2024-03-02T14:58:40;16.50;99.90
24384;DHT22;12504;52.870;8.798;2024-03-02T15:01:06;16.30;99.90
24384;DHT22;12504;52.870;8.798;2024-03-02T15:03:32;16.30;99.90
24384;DHT22;12504;52.870;8.798;2024-03-02T15:10:52;15.70;99.90
24384;DHT22;12504;52.870;8.798;2024-03-02T15:13:18;15.90;99.90
24384;DHT22;12504;52.870;8.798;2024-03-02T15:15:43;15.80;99.90
24384;DHT22;12504;52.870;8.798;2024-03-02T15:18:10;16.00;99.90
24384;DHT22;12504;52.870;8.798;2024-03-02T15:20:35;16.10;99.90
24384;DHT22;12504;52.870;8.798;2024-03-02T15:23:01;16.20;99.90
